Time;durP1;ratioP1;P1;durP2;ratioP2;P2;SDS_P1;SDS_P2;PMS_P1;PMS_P2;Temp;Humidity;BMP_temperature;BMP_pressure;BME280_temperature;BME280_humidity;BME280_pressure;Samples;Min_cycle;Max_cycle;Signal;HPM_P1;HPM_P2
2022/06/06 00:01:47;;;;;;;0.10;0.10;;;;;;;14.68;100.00;101430.47;5060732;28;20016;-71
2022/06/06 00:04:13;;;;;;;0.10;0.10;;;;;;;14.38;100.00;101428.03;5063257;28;20035;-71
2022/06/06 00:06:39;;;;;;;0.10;0.10;;;;;;;14.55;100.00;101430.34;5063050;28;20115;-70
2022/06/06 00:09:06;;;;;;;0.10;0.10;;;;;;;14.61;100.00;101429.19;5043302;28;20043;-69
2022/06/06 00:11:34;;;;;;;0.38;0.35;;;;;;;14.53;100.00;101428.69;5062446;28;20032;-70
2022/06/06 00:14:01;;;;;;;0.10;0.10;;;;;;;14.58;100.00;101430.56;5041597;28;20208;-70
2022/06/06 00:16:26;;;;;;;0.22;0.22;;;;;;;14.65;100.00;101422.78;5042539;28;20025;-72
2022/06/06 00:18:52;;;;;;;0.10;0.10;;;;;;;14.57;100.00;101420.63;5040339;28;20033;-70
2022/06/06 00:21:18;;;;;;;0.25;0.25;;;;;;;14.48;100.00;101422.44;5041619;28;20029;-71
2022/06/06 00:23:44;;;;;;;0.20;0.20;;;;;;;14.41;100.00;101422.75;5038957;28;20300;-71
2022/06/06 00:26:12;;;;;;;0.10;0.10;;;;;;;14.49;100.00;101424.91;5025593;28;20100;-76
2022/06/06 00:28:40;;;;;;;0.10;0.10;;;;;;;14.58;100.00;101422.28;5041234;28;20021;-71
2022/06/06 00:36:36;;;;;;;0.15;0.15;;;;;;;14.58;100.00;101407.69;5041477;28;20032;-70
2022/06/06 00:39:04;;;;;;;0.10;0.10;;;;;;;14.44;100.00;101397.34;5039927;28;20033;-71
2022/06/06 00:41:29;;;;;;;0.10;0.10;;;;;;;14.43;100.00;101398.47;5043558;28;20033;-70
2022/06/06 00:44:08;;;;;;;0.40;0.40;;;;;;;14.53;100.00;101395.59;5039759;28;20032;-71
2022/06/06 00:46:36;;;;;;;0.10;0.10;;;;;;;14.47;100.00;101390.44;5043200;28;20023;-70
2022/06/06 00:49:03;;;;;;;0.10;0.10;;;;;;;14.69;100.00;101387.97;5040042;28;20031;-71
2022/06/06 00:51:32;;;;;;;0.22;0.22;;;;;;;14.56;100.00;101391.44;5043123;28;20042;-71
2022/06/06 00:53:58;;;;;;;0.10;0.10;;;;;;;14.66;100.00;101379.47;5039048;28;20025;-70
2022/06/06 00:56:37;;;;;;;0.10;0.10;;;;;;;14.62;100.00;101384.72;5043754;28;20100;-71
2022/06/06 00:59:12;;;;;;;0.10;0.10;;;;;;;14.57;100.00;101382.00;5038083;28;20098;-71
2022/06/06 01:01:39;;;;;;;0.10;0.10;;;;;;;14.47;100.00;101382.97;5043647;28;20479;-69
2022/06/06 01:04:05;;;;;;;0.10;0.10;;;;;;;14.42;100.00;101373.94;5040789;28;20067;-70
2022/06/06 01:06:34;;;;;;;0.10;0.10;;;;;;;14.50;100.00;101378.81;5043616;28;20291;-70
2022/06/06 01:09:01;;;;;;;0.10;0.10;;;;;;;14.47;100.00;101379.38;5039896;28;20024;-69
2022/06/06 01:11:26;;;;;;;0.10;0.10;;;;;;;14.47;100.00;101373.88;5043719;28;20036;-71
2022/06/06 01:13:54;;;;;;;0.10;0.10;;;;;;;14.54;100.00;101366.03;5037554;28;20048;-70
2022/06/06 01:16:44;;;;;;;0.10;0.10;;;;;;;14.56;100.00;101374.03;5042259;28;20021;-69
2022/06/06 01:19:36;;;;;;;0.10;0.10;;;;;;;14.51;100.00;101373.00;5038130;28;20220;-70
2022/06/06 01:22:20;;;;;;;0.10;0.10;;;;;;;14.51;100.00;101383.19;5041419;28;20021;-70
2022/06/06 01:24:51;;;;;;;;;;;;;;;14.48;100.00;101370.00;5040835;28;20032;-70
2022/06/06 01:27:25;;;;;;;0.10;0.10;;;;;;;14.53;100.00;101364.41;5040052;28;20367;-70
2022/06/06 01:29:59;;;;;;;0.10;0.10;;;;;;;14.49;100.00;101361.44;5040690;28;20097;-71
2022/06/06 01:32:24;;;;;;;0.10;0.10;;;;;;;14.48;100.00;101367.25;5038151;28;20028;-70
2022/06/06 01:34:53;;;;;;;0.10;0.10;;;;;;;14.49;100.00;101346.81;5027934;28;20044;-70
2022/06/06 01:37:46;;;;;;;0.10;0.10;;;;;;;14.48;100.00;101347.94;5046653;28;20021;-71
2022/06/06 01:40:14;;;;;;;0.10;0.10;;;;;;;14.44;100.00;101341.34;5039839;28;20181;-70
2022/06/06 01:43:00;;;;;;;0.10;0.10;;;;;;;14.33;100.00;101346.16;5043163;28;20262;-71
2022/06/06 01:46:01;;;;;;;0.20;0.20;;;;;;;14.19;100.00;101356.31;5044510;28;20515;-71
2022/06/06 01:48:33;;;;;;;0.00;0.00;;;;;;;14.61;100.00;101351.91;5044816;28;20431;-71
2022/06/06 01:50:59;;;;;;;0.22;0.22;;;;;;;14.37;100.00;101354.69;5044132;28;20021;-72
2022/06/06 01:53:26;;;;;;;0.10;0.10;;;;;;;14.44;100.00;101344.13;5046819;28;20477;-68
2022/06/06 01:55:53;;;;;;;0.13;0.13;;;;;;;14.44;100.00;101355.16;5024730;28;20463;-69
2022/06/06 01:58:30;;;;;;;0.32;0.32;;;;;;;14.32;100.00;101348.13;5027449;28;20048;-70
2022/06/06 02:00:55;;;;;;;0.05;0.05;;;;;;;14.49;100.00;101344.88;5043137;28;20094;-71
2022/06/06 02:03:21;;;;;;;0.10;0.10;;;;;;;14.73;100.00;101341.25;5042775;28;20036;-70
2022/06/06 02:05:46;;;;;;;0.22;0.22;;;;;;;14.47;100.00;101343.53;5046739;28;20459;-70
2022/06/06 02:08:12;;;;;;;0.10;0.10;;;;;;;14.69;100.00;101341.03;5026802;28;20181;-70
2022/06/06 02:10:38;;;;;;;0.20;0.20;;;;;;;14.49;100.00;101335.75;5061571;28;20036;-70
2022/06/06 02:13:04;;;;;;;0.20;0.20;;;;;;;14.51;100.00;101328.00;5061401;28;20039;-70
2022/06/06 02:15:29;;;;;;;0.10;0.10;;;;;;;14.59;100.00;101321.00;5067010;28;20098;-71
2022/06/06 02:17:56;;;;;;;0.10;0.10;;;;;;;14.49;100.00;101324.72;5061176;28;20036;-70
2022/06/06 02:20:25;;;;;;;0.10;0.10;;;;;;;14.62;100.00;101323.22;5067107;28;20081;-70
2022/06/06 02:22:51;;;;;;;0.10;0.10;;;;;;;14.43;100.00;101325.91;5065435;28;20028;-70
2022/06/06 02:25:17;;;;;;;0.20;0.20;;;;;;;14.54;100.00;101319.13;5061180;28;20032;-71
2022/06/06 02:27:43;;;;;;;0.10;0.10;;;;;;;14.50;100.00;101324.44;5064307;28;20490;-69
2022/06/06 02:30:14;;;;;;;0.10;0.10;;;;;;;14.64;100.00;101323.72;5064523;28;20155;-70
2022/06/06 02:32:40;;;;;;;0.10;0.10;;;;;;;14.75;100.00;101324.41;5063642;28;20072;-70
2022/06/06 02:35:08;;;;;;;0.10;0.10;;;;;;;14.60;100.00;101314.41;5063605;28;20025;-71
2022/06/06 02:37:34;;;;;;;0.10;0.10;;;;;;;14.82;100.00;101322.09;5048556;28;20429;-70
2022/06/06 02:39:59;;;;;;;0.10;0.10;;;;;;;14.55;100.00;101317.22;5060667;28;20477;-70
2022/06/06 02:42:24;;;;;;;0.10;0.10;;;;;;;14.61;100.00;101327.91;5045536;28;20098;-69
2022/06/06 02:44:50;;;;;;;0.10;0.10;;;;;;;14.76;100.00;101323.28;5064625;28;20040;-70
2022/06/06 02:47:15;;;;;;;0.25;0.25;;;;;;;14.75;100.00;101325.22;5040843;28;20033;-70
2022/06/06 02:49:41;;;;;;;0.10;0.10;;;;;;;14.85;100.00;101321.50;5025949;28;20518;-71
2022/06/06 02:52:06;;;;;;;1.85;0.40;;;;;;;14.97;100.00;101321.88;5042943;28;20048;-70
2022/06/06 02:54:32;;;;;;;0.10;0.10;;;;;;;14.93;100.00;101312.53;5043657;28;20082;-70
2022/06/06 02:57:03;;;;;;;0.10;0.10;;;;;;;14.81;100.00;101312.19;5040682;28;20367;-69
2022/06/06 02:59:31;;;;;;;0.10;0.10;;;;;;;14.97;100.00;101321.88;5043289;28;20035;-70
2022/06/06 03:01:57;;;;;;;1.38;1.38;;;;;;;14.91;100.00;101309.25;5044372;28;20032;-70
2022/06/06 03:04:23;;;;;;;0.10;0.10;;;;;;;14.90;100.00;101313.13;5040254;28;20024;-70
2022/06/06 03:07:39;;;;;;;0.10;0.10;;;;;;;14.81;100.00;101309.41;5044791;28;20025;-70
2022/06/06 03:10:34;;;;;;;0.10;0.10;;;;;;;14.83;100.00;101312.69;5032001;28;20045;-70
2022/06/06 03:13:25;;;;;;;0.10;0.10;;;;;;;14.85;100.00;101315.97;5042883;28;20039;-71
2022/06/06 03:22:29;;;;;;;0.10;0.10;;;;;;;14.72;100.00;101328.56;5041960;28;20100;-70
2022/06/06 03:25:25;;;;;;;0.10;0.10;;;;;;;14.85;100.00;101327.00;5041045;28;20052;-70
2022/06/06 03:28:19;;;;;;;0.08;0.08;;;;;;;14.91;100.00;101323.06;5041741;28;20033;-70
2022/06/06 03:30:57;;;;;;;0.63;0.20;;;;;;;14.83;100.00;101326.50;5041861;28;20025;-70
2022/06/06 03:34:10;;;;;;;0.10;0.10;;;;;;;14.95;100.00;101329.59;5040141;28;20380;-70
2022/06/06 03:36:46;;;;;;;0.00;0.00;;;;;;;14.89;100.00;101323.34;5024241;28;20043;-69
2022/06/06 03:39:37;;;;;;;0.30;0.30;;;;;;;14.79;100.00;101312.47;5038076;28;20033;-70
2022/06/06 03:42:08;;;;;;;0.13;0.13;;;;;;;15.04;100.00;101330.56;5037213;28;20485;-71
2022/06/06 03:44:40;;;;;;;0.10;0.10;;;;;;;14.89;100.00;101319.78;5042212;28;20029;-71
2022/06/06 03:47:20;;;;;;;0.13;0.13;;;;;;;14.91;100.00;101328.59;5042965;28;20079;-70
2022/06/06 03:50:07;;;;;;;0.10;0.10;;;;;;;14.84;100.00;101320.69;5060835;28;20052;-71
2022/06/06 03:52:44;;;;;;;0.10;0.10;;;;;;;14.77;100.00;101325.75;5063975;28;20395;-70
2022/06/06 03:55:28;;;;;;;0.10;0.10;;;;;;;14.79;100.00;101322.69;5054443;28;20542;-70
2022/06/06 03:57:56;;;;;;;0.10;0.10;;;;;;;14.78;100.00;101324.63;5061706;28;20102;-70
2022/06/06 04:00:22;;;;;;;0.25;0.25;;;;;;;14.60;100.00;101320.75;5062060;28;20059;-71
2022/06/06 04:02:49;;;;;;;0.10;0.10;;;;;;;14.70;100.00;101325.31;5062730;28;20047;-70
2022/06/06 04:05:17;;;;;;;0.00;0.00;;;;;;;14.69;100.00;101321.72;5061794;28;20029;-69
2022/06/06 04:07:43;;;;;;;0.00;0.00;;;;;;;14.76;100.00;101313.06;5064477;28;20024;-71
2022/06/06 04:10:09;;;;;;;0.10;0.10;;;;;;;15.09;100.00;101321.41;5060364;28;20401;-71
2022/06/06 04:12:41;;;;;;;0.10;0.10;;;;;;;14.89;100.00;101315.06;5043710;28;20087;-70
2022/06/06 04:15:19;;;;;;;0.10;0.10;;;;;;;14.97;100.00;101309.97;5061805;28;20051;-70
2022/06/06 04:17:56;;;;;;;0.10;0.10;;;;;;;14.99;100.00;101313.28;5064303;28;20029;-71
2022/06/06 04:20:30;;;;;;;0.10;0.10;;;;;;;15.13;100.00;101307.81;5058456;28;20050;-71
2022/06/06 04:23:23;;;;;;;0.10;0.10;;;;;;;15.11;100.00;101304.53;5064710;28;20052;-72
2022/06/06 04:26:13;;;;;;;0.10;0.10;;;;;;;15.24;100.00;101312.03;5061486;28;20085;-72
2022/06/06 04:28:52;;;;;;;0.10;0.10;;;;;;;15.20;100.00;101314.59;5061783;28;20027;-73
2022/06/06 04:31:29;;;;;;;0.25;0.25;;;;;;;15.03;100.00;101323.41;5063925;28;20024;-72
2022/06/06 04:34:22;;;;;;;0.10;0.10;;;;;;;14.93;100.00;101320.00;5060888;28;20560;-73
2022/06/06 04:37:00;;;;;;;2.27;0.23;;;;;;;15.07;100.00;101323.66;5063900;28;20479;-72
2022/06/06 04:39:34;;;;;;;0.15;0.15;;;;;;;14.98;100.00;101330.97;5057881;28;20633;-72
2022/06/06 04:42:23;;;;;;;0.10;0.10;;;;;;;14.90;100.00;101329.69;5061194;28;20108;-73
2022/06/06 04:45:06;;;;;;;0.10;0.10;;;;;;;14.83;100.00;101332.03;5063828;28;20207;-73
2022/06/06 04:47:35;;;;;;;;;;;;;;;14.80;100.00;101318.81;5062007;28;20028;-72
2022/06/06 04:50:13;;;;;;;0.10;0.10;;;;;;;14.69;100.00;101324.50;5048812;28;20279;-72
2022/06/06 04:52:41;;;;;;;0.10;0.10;;;;;;;14.99;100.00;101319.63;5043508;28;20025;-72
2022/06/06 04:55:09;;;;;;;0.10;0.10;;;;;;;14.81;100.00;101317.69;5040611;28;20075;-73
2022/06/06 04:57:37;;;;;;;0.10;0.10;;;;;;;14.84;100.00;101312.41;5022127;28;20037;-72
2022/06/06 05:00:06;;;;;;;0.10;0.10;;;;;;;14.75;100.00;101321.66;5041436;28;20399;-72
2022/06/06 05:02:33;;;;;;;0.00;0.00;;;;;;;15.01;100.00;101317.38;5023114;28;20101;-73
2022/06/06 05:04:59;;;;;;;0.10;0.10;;;;;;;14.93;100.00;101315.28;5021092;28;20029;-72
2022/06/06 05:07:39;;;;;;;0.10;0.10;;;;;;;14.76;100.00;101317.75;5038983;28;20053;-72
2022/06/06 05:10:07;;;;;;;0.10;0.10;;;;;;;14.76;100.00;101317.75;5039104;28;20025;-71
2022/06/06 05:12:50;;;;;;;0.00;0.00;;;;;;;14.75;100.00;101316.94;5035333;28;20235;-70
2022/06/06 05:15:49;;;;;;;0.20;0.20;;;;;;;14.73;100.00;101316.44;5038821;28;20028;-71
2022/06/06 05:18:30;;;;;;;0.10;0.10;;;;;;;14.76;100.00;101315.00;5039865;28;20025;-72
2022/06/06 05:21:08;;;;;;;0.10;0.10;;;;;;;14.93;100.00;101318.06;5059028;28;20033;-71
2022/06/06 05:23:49;;;;;;;0.10;0.10;;;;;;;14.87;100.00;101313.72;5056095;28;20382;-71
2022/06/06 05:26:42;;;;;;;0.10;0.10;;;;;;;14.99;100.00;101310.53;5060427;28;20123;-71
2022/06/06 05:29:31;;;;;;;0.10;0.10;;;;;;;14.80;100.00;101308.59;5060512;28;20020;-71
2022/06/06 05:32:21;;;;;;;0.10;0.10;;;;;;;14.72;100.00;101300.16;5061844;28;20083;-71
2022/06/06 05:35:15;;;;;;;0.10;0.10;;;;;;;14.72;100.00;101306.50;5060182;28;20104;-71
2022/06/06 05:37:59;;;;;;;0.10;0.10;;;;;;;15.13;100.00;101296.75;5059817;28;20346;-71
2022/06/06 05:40:36;;;;;;;0.10;0.10;;;;;;;15.41;100.00;101300.41;5056677;28;20031;-71
2022/06/06 05:43:27;;;;;;;0.03;0.03;;;;;;;15.23;100.00;101293.81;5059982;28;20443;-70
2022/06/06 05:46:07;;;;;;;0.10;0.10;;;;;;;15.16;100.00;101298.91;5063234;28;20111;-70
2022/06/06 05:48:45;;;;;;;0.00;0.00;;;;;;;15.00;100.00;101299.19;5059717;28;20139;-70
2022/06/06 05:51:23;;;;;;;0.10;0.10;;;;;;;15.35;100.00;101296.94;5040733;28;20071;-71
2022/06/06 05:54:14;;;;;;;0.10;0.10;;;;;;;15.20;100.00;101300.78;5039869;28;20123;-72
2022/06/06 05:57:03;;;;;;;0.10;0.10;;;;;;;15.54;100.00;101302.38;5039623;28;20586;-70
2022/06/06 05:59:47;;;;;;;0.00;0.00;;;;;;;15.24;100.00;101312.03;5041574;28;20037;-71
2022/06/06 06:02:32;;;;;;;0.10;0.10;;;;;;;15.24;100.00;101307.31;5043243;28;20056;-70
2022/06/06 06:05:16;;;;;;;0.10;0.10;;;;;;;15.21;100.00;101307.91;5056275;28;20419;-71
2022/06/06 06:08:08;;;;;;;0.20;0.20;;;;;;;15.24;100.00;101314.78;5059511;28;20119;-71
2022/06/06 06:10:47;;;;;;;0.10;0.10;;;;;;;15.28;100.00;101310.28;5055497;28;20090;-70
2022/06/06 06:14:04;;;;;;;0.10;0.10;;;;;;;15.29;100.00;101309.19;5060305;28;20097;-71
2022/06/06 06:16:34;;;;;;;0.30;0.30;;;;;;;15.27;100.00;101325.25;5051466;28;20094;-70
2022/06/06 06:19:10;;;;;;;0.20;0.20;;;;;;;15.11;100.00;101318.34;5061510;28;20016;-72
2022/06/06 06:21:44;;;;;;;0.20;0.20;;;;;;;15.20;100.00;101314.59;5059914;28;20036;-70
2022/06/06 06:24:16;;;;;;;0.13;0.13;;;;;;;15.09;100.00;101317.81;5059688;28;20077;-70
2022/06/06 06:26:43;;;;;;;0.10;0.10;;;;;;;15.24;100.00;101321.13;5059658;28;20036;-70
2022/06/06 06:29:09;;;;;;;0.10;0.10;;;;;;;15.35;100.00;101323.75;5047482;28;20387;-70
2022/06/06 06:32:06;;;;;;;0.10;0.10;;;;;;;15.84;100.00;101307.66;5038463;28;20025;-71
2022/06/06 06:34:46;;;;;;;0.10;0.10;;;;;;;15.94;100.00;101313.00;5040853;28;20456;-71
2022/06/06 06:37:34;;;;;;;0.10;0.10;;;;;;;15.62;100.00;101323.78;5041768;28;20025;-70
2022/06/06 06:40:34;;;;;;;0.10;0.10;;;;;;;15.69;100.00;101317.03;5039925;28;20051;-70
2022/06/06 06:43:06;;;;;;;0.10;0.10;;;;;;;15.74;100.00;101328.00;5038558;28;20409;-71
2022/06/06 06:45:50;;;;;;;0.10;0.10;;;;;;;15.66;100.00;101324.00;5038460;28;20040;-69
2022/06/06 06:48:28;;;;;;;0.10;0.10;;;;;;;15.80;100.00;101335.09;5044207;28;20020;-71
2022/06/06 06:51:03;;;;;;;0.10;0.10;;;;;;;15.46;100.00;101336.22;5043074;28;20091;-70
2022/06/06 06:54:06;;;;;;;0.10;0.10;;;;;;;15.44;100.00;101336.53;5041892;28;20111;-69
2022/06/06 06:56:55;;;;;;;0.10;0.10;;;;;;;15.95;100.00;101340.34;5011715;28;20068;-69
2022/06/06 06:59:41;;;;;;;0.10;0.10;;;;;;;15.52;100.00;101336.97;5040258;28;20120;-71
2022/06/06 07:08:34;;;;;;;0.10;0.10;;;;;;;15.98;100.00;101336.13;5044249;28;20036;-70
2022/06/06 07:11:28;;;;;;;0.10;0.10;;;;;;;16.07;100.00;101337.06;5043185;28;20522;-70
2022/06/06 07:14:08;;;;;;;0.00;0.00;;;;;;;15.95;100.00;101332.06;5042408;28;20025;-71
2022/06/06 07:16:36;;;;;;;0.10;0.10;;;;;;;16.29;100.00;101321.69;5042766;28;20082;-70
2022/06/06 07:19:16;;;;;;;0.10;0.10;;;;;;;16.25;100.00;101340.84;5044403;28;20029;-69
2022/06/06 07:21:43;;;;;;;0.10;0.10;;;;;;;16.43;100.00;101339.09;5040157;28;20557;-71
2022/06/06 07:24:12;;;;;;;0.00;0.00;;;;;;;16.34;100.00;101330.69;5043830;28;20036;-71
2022/06/06 07:26:41;;;;;;;0.10;0.10;;;;;;;16.30;100.00;101337.97;5040403;28;20029;-68
2022/06/06 07:29:12;;;;;;;0.00;0.00;;;;;;;16.48;100.00;101349.25;5045387;28;20025;-70
2022/06/06 07:31:55;;;;;;;0.10;0.10;;;;;;;16.72;100.00;101340.66;5042558;28;20033;-69
2022/06/06 07:35:14;;;;;;;0.00;0.00;;;;;;;16.82;100.00;101334.91;5045406;28;20027;-69
2022/06/06 07:38:06;;;;;;;0.10;0.10;;;;;;;17.40;100.00;101346.28;5041375;28;20601;-70
2022/06/06 07:40:56;;;;;;;0.10;0.10;;;;;;;16.55;100.00;101355.16;5039074;28;20031;-70
2022/06/06 07:43:34;;;;;;;0.10;0.10;;;;;;;16.41;100.00;101352.41;5041991;28;20097;-70
2022/06/06 07:46:26;;;;;;;0.00;0.00;;;;;;;15.96;100.00;101360.53;5043950;28;20540;-71
2022/06/06 07:48:57;;;;;;;0.10;0.10;;;;;;;16.31;100.00;101355.38;5043790;28;20029;-70
2022/06/06 07:51:38;;;;;;;0.10;0.10;;;;;;;16.21;100.00;101361.16;5041859;28;20089;-70
2022/06/06 07:54:25;;;;;;;0.10;0.10;;;;;;;16.49;100.00;101368.28;5042160;28;20521;-70
2022/06/06 07:56:57;;;;;;;0.08;0.08;;;;;;;17.18;100.00;101358.19;5039193;28;20060;-69
2022/06/06 07:59:47;;;;;;;0.00;0.00;;;;;;;17.39;100.00;101352.97;5063534;28;20083;-70
2022/06/06 08:02:21;;;;;;;0.10;0.10;;;;;;;16.28;100.00;101361.53;5062946;28;20021;-70
2022/06/06 08:05:01;;;;;;;0.10;0.10;;;;;;;16.35;100.00;101359.19;5058218;28;20334;-71
2022/06/06 08:07:56;;;;;;;0.10;0.10;;;;;;;17.01;100.00;101350.56;5060541;28;20483;-69
2022/06/06 08:10:39;;;;;;;0.20;0.20;;;;;;;17.71;100.00;101351.00;5061583;28;20021;-69
2022/06/06 08:13:14;;;;;;;0.10;0.10;;;;;;;17.26;100.00;101363.78;5057855;28;20427;-69
2022/06/06 08:15:42;;;;;;;0.10;0.10;;;;;;;17.54;100.00;101362.84;5058712;28;20040;-70
2022/06/06 08:18:19;;;;;;;0.10;0.10;;;;;;;16.94;100.00;101359.31;5061870;28;20451;-70
2022/06/06 08:20:54;;;;;;;0.20;0.20;;;;;;;17.48;100.00;101366.88;5056536;28;20063;-70
2022/06/06 08:23:22;;;;;;;0.05;0.05;;;;;;;17.87;100.00;101352.25;5063435;28;20101;-69
2022/06/06 08:25:49;;;;;;;0.10;0.10;;;;;;;17.90;100.00;101351.63;5039916;28;20366;-69
2022/06/06 08:28:16;;;;;;;0.10;0.10;;;;;;;18.06;100.00;101354.81;5047929;28;20324;-70
2022/06/06 08:30:44;;;;;;;0.10;0.10;;;;;;;18.67;100.00;101349.41;5037485;28;20475;-69
2022/06/06 08:33:10;;;;;;;0.10;0.10;;;;;;;18.31;100.00;101342.13;5040299;28;20426;-70
2022/06/06 08:35:56;;;;;;;0.20;0.20;;;;;;;17.71;100.00;101348.25;5037051;28;20108;-70
2022/06/06 08:38:32;;;;;;;0.10;0.10;;;;;;;17.85;100.00;101348.97;5039876;28;20112;-70
2022/06/06 08:41:20;;;;;;;0.00;0.00;;;;;;;17.66;100.00;101338.13;5040191;28;20052;-71
2022/06/06 08:43:45;;;;;;;0.00;0.00;;;;;;;17.52;100.00;101335.44;5037448;28;20033;-70
2022/06/06 08:46:29;;;;;;;0.00;0.00;;;;;;;18.43;100.00;101346.25;5039655;28;20056;-69
2022/06/06 08:49:00;;;;;;;0.17;0.17;;;;;;;18.34;100.00;101346.25;5038750;28;20232;-69
2022/06/06 08:51:52;;;;;;;0.03;0.03;;;;;;;18.34;100.00;101330.41;5039312;28;20044;-70
2022/06/06 08:54:31;;;;;;;0.00;0.00;;;;;;;18.36;100.00;101322.59;5042672;28;20028;-70
2022/06/06 08:57:18;;;;;;;0.10;0.10;;;;;;;17.96;100.00;101342.03;5036437;28;20451;-70
2022/06/06 08:59:58;;;;;;;0.10;0.10;;;;;;;18.60;100.00;101337.97;5038647;28;20020;-70
2022/06/06 09:02:48;;;;;;;0.10;0.10;;;;;;;19.23;100.00;101341.28;5039526;28;20024;-70
2022/06/06 09:05:39;;;;;;;0.10;0.10;;;;;;;18.26;100.00;101347.03;5038705;28;20112;-69
2022/06/06 09:08:41;;;;;;;0.00;0.00;;;;;;;18.63;100.00;101334.53;5041758;28;20039;-69
2022/06/06 09:11:25;;;;;;;0.00;0.00;;;;;;;19.32;100.00;101338.47;5042723;28;20052;-70
2022/06/06 09:14:12;;;;;;;0.00;0.00;;;;;;;18.98;100.00;101331.78;5039514;28;20040;-69
2022/06/06 09:17:02;;;;;;;0.10;0.10;;;;;;;18.59;100.00;101339.09;5037636;28;20083;-70
2022/06/06 09:19:59;;;;;;;0.10;0.10;;;;;;;18.98;100.00;101329.03;5040978;28;20021;-70
2022/06/06 09:22:44;;;;;;;0.10;0.10;;;;;;;19.41;100.00;101336.50;5039993;28;20444;-70
2022/06/06 09:25:24;;;;;;;0.00;0.00;;;;;;;18.64;100.00;101329.78;5040550;28;20036;-70
2022/06/06 09:28:11;;;;;;;0.10;0.10;;;;;;;18.05;100.00;101324.59;5038668;28;20021;-70
2022/06/06 09:30:45;;;;;;;0.10;0.10;;;;;;;17.62;100.00;101324.06;5039863;28;20030;-70
2022/06/06 09:33:26;;;;;;;0.05;0.05;;;;;;;18.23;100.00;101328.25;5041032;28;20494;-71
2022/06/06 09:35:58;;;;;;;0.00;0.00;;;;;;;18.36;100.00;101328.13;5036746;28;20451;-69
2022/06/06 09:38:51;;;;;;;0.00;0.00;;;;;;;18.36;100.00;101330.91;5041790;28;20071;-69
2022/06/06 09:41:38;;;;;;;0.10;0.10;;;;;;;18.57;100.00;101329.47;5041581;28;20372;-69
2022/06/06 09:44:20;;;;;;;0.00;0.00;;;;;;;18.37;100.00;101332.53;5039779;28;20021;-70
2022/06/06 09:47:21;;;;;;;1.15;0.57;;;;;;;18.68;100.00;101322.47;5037279;28;20229;-70
2022/06/06 09:49:59;;;;;;;0.00;0.00;;;;;;;18.52;100.00;101322.91;5040270;28;20056;-70
2022/06/06 09:52:51;;;;;;;0.00;0.00;;;;;;;18.23;100.00;101317.16;5039257;28;20029;-70
2022/06/06 10:01:44;;;;;;;0.03;0.03;;;;;;;18.51;100.00;101303.81;5047239;28;20502;-71
2022/06/06 10:04:44;;;;;;;0.00;0.00;;;;;;;18.07;100.00;101306.50;5044727;28;20348;-70
2022/06/06 10:07:23;;;;;;;0.10;0.10;;;;;;;18.04;100.00;101309.09;5043711;28;20056;-70
2022/06/06 10:10:22;;;;;;;0.00;0.00;;;;;;;18.21;100.00;101309.16;5040956;28;20212;-70
2022/06/06 10:13:14;;;;;;;0.08;0.08;;;;;;;17.27;100.00;101298.13;5040131;28;20169;-70
2022/06/06 10:16:07;;;;;;;0.00;0.00;;;;;;;17.32;100.00;101308.25;5042934;28;20075;-70
2022/06/06 10:18:54;;;;;;;0.00;0.00;;;;;;;17.23;100.00;101308.19;5042729;28;20029;-72
2022/06/06 10:21:41;;;;;;;0.10;0.10;;;;;;;17.56;100.00;101310.66;5044931;28;20149;-70
2022/06/06 10:24:06;;;;;;;0.10;0.10;;;;;;;17.59;100.00;101310.03;5040534;28;20032;-70
2022/06/06 10:26:50;;;;;;;11.88;4.90;;;;;;;18.14;100.00;101308.81;5042601;28;20032;-71
2022/06/06 10:29:24;;;;;;;16.05;4.53;;;;;;;18.90;100.00;101302.06;5043173;28;20112;-70
2022/06/06 10:32:29;;;;;;;11.73;4.05;;;;;;;18.30;100.00;101307.22;5042383;28;20443;-69
2022/06/06 10:35:24;;;;;;;11.68;4.43;;;;;;;18.24;100.00;101302.94;5018016;28;20048;-70
2022/06/06 10:38:08;;;;;;;14.35;3.78;;;;;;;17.67;100.00;101300.13;5037917;28;20044;-71
2022/06/06 10:40:52;;;;;;;6.50;3.10;;;;;;;17.49;100.00;101294.47;5042535;28;20076;-71
2022/06/06 10:43:33;;;;;;;9.20;3.70;;;;;;;17.46;100.00;101297.88;5041046;28;20024;-71
2022/06/06 10:46:30;;;;;;;12.98;3.67;;;;;;;16.70;100.00;101291.13;5042179;28;20454;-72
2022/06/06 10:49:08;;;;;;;9.38;3.83;;;;;;;17.01;100.00;101301.53;5022069;28;20162;-71
2022/06/06 10:51:46;;;;;;;8.88;3.85;;;;;;;17.21;100.00;101308.50;5048458;28;20079;-71
2022/06/06 10:54:49;;;;;;;8.60;3.33;;;;;;;17.40;100.00;101296.41;5059184;28;20071;-71
2022/06/06 10:57:39;;;;;;;8.30;3.40;;;;;;;16.87;100.00;101301.59;5060364;28;20268;-70
2022/06/06 11:00:20;;;;;;;9.35;3.97;;;;;;;17.39;100.00;101303.06;5059960;28;20134;-72
2022/06/06 11:02:55;;;;;;;7.18;3.30;;;;;;;16.77;100.00;101300.97;5059136;28;20398;-72
2022/06/06 11:05:48;;;;;;;12.02;3.78;;;;;;;16.85;100.00;101301.06;5061791;28;20454;-73
2022/06/06 11:08:20;;;;;;;;;;;;;;;16.75;100.00;101292.97;5061196;28;20027;-73
2022/06/06 11:10:56;;;;;;;9.32;4.32;;;;;;;16.85;100.00;101287.22;5073227;28;19913;-73
2022/06/06 11:13:48;;;;;;;12.73;5.25;;;;;;;17.34;100.00;101292.13;5060133;28;21522;-73
2022/06/06 11:16:33;;;;;;;11.48;4.75;;;;;;;17.66;100.00;101287.38;5064511;28;20538;-73
2022/06/06 11:19:18;;;;;;;10.25;4.70;;;;;;;17.35;100.00;101294.56;5059892;28;20031;-72
2022/06/06 11:22:14;;;;;;;12.05;4.93;;;;;;;17.70;100.00;101278.09;5057886;28;20040;-73
2022/06/06 11:24:42;;;;;;;12.77;4.75;;;;;;;17.13;100.00;101287.09;5060469;28;20090;-73
2022/06/06 11:27:29;;;;;;;21.05;5.25;;;;;;;16.20;100.00;101290.34;5056087;28;20341;-73
2022/06/06 11:30:11;;;;;;;13.95;5.80;;;;;;;15.30;100.00;101283.22;5045737;28;20112;-70
2022/06/06 11:33:18;;;;;;;15.40;5.60;;;;;;;15.50;100.00;101303.31;5046030;28;20025;-72
2022/06/06 11:35:50;;;;;;;14.27;5.85;;;;;;;15.32;100.00;101303.06;5020686;28;20039;-70
2022/06/06 11:38:34;;;;;;;13.68;5.95;;;;;;;15.74;100.00;101303.13;5039107;28;20035;-71
2022/06/06 11:41:28;;;;;;;18.60;7.50;;;;;;;16.16;100.00;101288.19;5038638;28;20110;-71
2022/06/06 11:44:16;;;;;;;14.10;6.50;;;;;;;16.53;100.00;101302.88;5034099;28;20025;-72
2022/06/06 11:47:00;;;;;;;12.52;6.75;;;;;;;16.41;100.00;101297.06;5041877;28;20044;-69
2022/06/06 11:49:51;;;;;;;10.05;5.70;;;;;;;16.11;100.00;101299.34;5041407;28;20059;-72
2022/06/06 11:52:46;;;;;;;11.13;5.80;;;;;;;16.21;100.00;101303.06;5057552;28;20024;-73
2022/06/06 11:55:49;;;;;;;12.82;5.30;;;;;;;16.04;100.00;101293.44;5039834;28;20559;-73
2022/06/06 11:58:45;;;;;;;10.17;5.30;;;;;;;16.09;100.00;101286.97;5043780;28;20096;-71
2022/06/06 12:01:20;;;;;;;12.07;4.90;;;;;;;16.05;100.00;101292.28;5039760;28;20287;-71
2022/06/06 12:04:01;;;;;;;9.02;4.85;;;;;;;16.14;100.00;101289.63;5061527;28;20048;-72
2022/06/06 12:06:50;;;;;;;13.55;5.65;;;;;;;16.21;100.00;101290.03;5059731;28;20386;-73
2022/06/06 12:09:32;;;;;;;8.68;3.90;;;;;;;15.39;100.00;101299.91;5057022;28;20047;-73
2022/06/06 12:12:08;;;;;;;9.18;4.10;;;;;;;15.75;100.00;101294.50;5056690;28;20020;-73
2022/06/06 12:15:02;;;;;;;7.45;4.00;;;;;;;15.73;100.00;101284.91;5061026;28;20469;-72
2022/06/06 12:17:49;;;;;;;10.52;3.80;;;;;;;15.42;100.00;101297.34;5062540;28;20040;-73
2022/06/06 12:20:52;;;;;;;10.38;3.92;;;;;;;15.49;100.00;101319.03;5061529;28;20433;-71
2022/06/06 12:24:12;;;;;;;11.77;3.33;;;;;;;14.41;100.00;101333.66;5057709;28;20021;-72
2022/06/06 12:26:59;;;;;;;6.45;2.47;;;;;;;13.77;100.00;101347.66;5006012;28;20244;-77
2022/06/06 12:29:43;;;;;;;5.85;2.53;;;;;;;14.16;100.00;101353.00;5039528;28;21351;-78
2022/06/06 12:32:39;;;;;;;8.57;2.67;;;;;;;14.25;100.00;101364.22;5032982;28;20024;-77
2022/06/06 12:35:21;;;;;;;0.10;0.10;;;;;;;14.06;100.00;101379.88;5059137;28;20020;-75
2022/06/06 12:38:19;;;;;;;0.10;0.10;;;;;;;13.71;100.00;101368.13;5040093;28;20123;-75